AXCGGARGarmin  id=247  GPS 72 Software Version 2.50|2140330771
HFDTE290910
HFPLTPilot:UNREGISTERED
HFTZOTimezone:2
HFSITSite:
HPGTYGliderType:
HPGIDGliderID:
HFDTM100DATUM:WGS-1984
HFCIDCOMPETITIONID:
HFCCLCOMPETITIONCLASS:
LXCG     ICON:C:\Program Files\CompeGPS\symbols\IconsPlay\cronos.ico
LXCG     COLOR:000119000
I00
B1443353735229N00104446WA0000000148
B1443413735225N00104448WA0000000152
B1443473735226N00104427WA0000000155
B1443533735224N00104409WA0000000157
B1443593735223N00104420WA0000000158
B1444053735229N00104438WA0000000159
B1444113735235N00104456WA0000000163
B1444173735240N00104476WA0000000163
B1444233735237N00104481WA0000000165
B1444293735231N00104473WA0000000168
B1444353735226N00104470WA0000000169
B1444413735222N00104465WA0000000172
B1444473735219N00104466WA0000000173
B1444533735211N00104464WA0000000175
B1444593735205N00104463WA0000000174
B1445053735198N00104464WA0000000176
B1445113735192N00104462WA0000000172
B1445173735183N00104465WA0000000172
B1445233735175N00104469WA0000000169
B1445293735166N00104473WA0000000167
B1445353735156N00104480WA0000000168
B1445413735148N00104485WA0000000165
B1445473735138N00104493WA0000000164
B1445533735129N00104499WA0000000160
B1445593735120N00104502WA0000000158
B1446053735110N00104509WA0000000153
B1446113735101N00104516WA0000000148
B1446173735092N00104524WA0000000144
B1446233735082N00104530WA0000000140
B1446293735074N00104537WA0000000136
B1446353735065N00104542WA0000000132
B1446413735056N00104549WA0000000127
B1446473735045N00104562WA0000000122
B1446533735035N00104571WA0000000119
B1446593735026N00104578WA0000000115
B1447053735018N00104586WA0000000110
B1447113735006N00104593WA0000000106
B1447173734997N00104596WA0000000106
B1447233734993N00104607WA0000000104
B1447293734997N00104625WA0000000105
B1447353735016N00104647WA0000000110
B1447413735020N00104666WA0000000116
B1447473735022N00104687WA0000000126
B1447533735015N00104675WA0000000133
B1447593735009N00104649WA0000000141
B1448053735013N00104661WA0000000148
B1448113735026N00104679WA0000000155
B1448173735044N00104697WA0000000160
B1448233735040N00104678WA0000000163
B1448293735034N00104665WA0000000162
B1448353735039N00104681WA0000000165
B1448413735061N00104699WA0000000169
B1448473735073N00104715WA0000000168
B1448533735065N00104701WA0000000169
B1448593735056N00104691WA0000000172
B1449053735049N00104687WA0000000178
B1449113735043N00104692WA0000000179
B1449173735038N00104702WA0000000181
B1449233735035N00104713WA0000000184
B1449293735032N00104725WA0000000187
B1449353735028N00104737WA0000000189
B1449413735026N00104755WA0000000189
B1449473735022N00104764WA0000000186
B1449533735020N00104775WA0000000185
B1449593735023N00104790WA0000000181
B1450053735020N00104799WA0000000179
B1450113735018N00104776WA0000000178
B1450173735032N00104737WA0000000181
B1450233735039N00104698WA0000000182
B1450293735035N00104683WA0000000185
B1450353735047N00104702WA0000000188
B1450413735055N00104718WA0000000186
B1450473735052N00104727WA0000000186
B1450533735047N00104732WA0000000186
B1450593735040N00104730WA0000000183
B1451053735035N00104740WA0000000182
B1451113735027N00104748WA0000000183
B1451173735015N00104747WA0000000180
B1451233735013N00104751WA0000000177
B1451293735013N00104761WA0000000177
B1451353735006N00104769WA0000000181
B1451413734995N00104768WA0000000181
B1451473734985N00104768WA0000000181
B1451533734973N00104769WA0000000184
B1451593734968N00104772WA0000000177
B1452053734957N00104775WA0000000169
B1452113734949N00104752WA0000000165
B1452173734967N00104708WA0000000161
B1452233735005N00104681WA0000000160
B1452293735032N00104642WA0000000161
B1452353735028N00104635WA0000000159
B1452413735034N00104648WA0000000161
B1452473735041N00104661WA0000000164
B1452533735047N00104675WA0000000167
B1452593735064N00104694WA0000000170
B1453053735082N00104715WA0000000175
B1453113735082N00104715WA0000000178
B1453173735076N00104703WA0000000182
B1453233735072N00104703WA0000000187
B1453293735072N00104701WA0000000187
B1453353735079N00104716WA0000000183
B1453413735080N00104726WA0000000180
B1453473735074N00104711WA0000000178
B1453533735069N00104714WA0000000181
B1453593735065N00104716WA0000000185
B1454053735061N00104719WA0000000184
B1454113735068N00104738WA0000000185
B1454173735066N00104744WA0000000184
B1454233735069N00104756WA0000000184
B1454293735067N00104763WA0000000184
B1454353735066N00104736WA0000000188
B1454413735064N00104713WA0000000186
B1454473735078N00104733WA0000000187
B1454533735082N00104748WA0000000185
B1454593735077N00104733WA0000000184
B1455053735076N00104716WA0000000189
B1455113735076N00104715WA0000000192
B1455173735078N00104723WA0000000192
B1455233735076N00104729WA0000000193
B1455293735071N00104724WA0000000193
B1455353735067N00104723WA0000000194
B1455413735064N00104726WA0000000197
B1455473735068N00104735WA0000000197
B1455533735063N00104729WA0000000197
B1455593735059N00104708WA0000000200
B1456053735062N00104718WA0000000202
B1456113735066N00104734WA0000000201
B1456173735066N00104742WA0000000198
B1456233735056N00104733WA0000000198
B1456293735049N00104712WA0000000195
B1456353735040N00104692WA0000000199
B1456413735034N00104682WA0000000208
B1456473735027N00104682WA0000000206
B1456533735026N00104695WA0000000206
B1456593735028N00104709WA0000000209
B1457053735026N00104717WA0000000211
B1457113735025N00104722WA0000000213
B1457173735023N00104724WA0000000212
B1457233735018N00104726WA0000000209
B1457293735013N00104729WA0000000208
B1457353735008N00104731WA0000000211
B1457413735005N00104738WA0000000214
B1457473735004N00104748WA0000000211
B1457533735001N00104757WA0000000208
B1457593734991N00104745WA0000000203
B1458053734991N00104753WA0000000201
B1458113734995N00104767WA0000000199
B1458173734993N00104773WA0000000198
B1458233734985N00104773WA0000000199
B1458293734977N00104767WA0000000196
B1458353734971N00104758WA0000000188
B1458413734973N00104768WA0000000182
B1458473734972N00104783WA0000000179
B1458533734966N00104762WA0000000177
B1458593734991N00104723WA0000000176
B1459053735017N00104686WA0000000174
B1459113735018N00104690WA0000000177
B1459173735052N00104703WA0000000179
B1459233735066N00104720WA0000000181
B1459293735065N00104723WA0000000181
B1459353735062N00104698WA0000000184
B1459413735066N00104706WA0000000186
B1459473735090N00104724WA0000000188
B1459533735088N00104726WA0000000186
B1459593735082N00104715WA0000000186
B1500053735076N00104714WA0000000186
B1500113735072N00104714WA0000000188
B1500173735066N00104706WA0000000191
B1500233735065N00104710WA0000000197
B1500293735060N00104711WA0000000200
B1500353735057N00104707WA0000000201
B1500413735064N00104718WA0000000193
B1500473735063N00104726WA0000000190
B1500533735060N00104703WA0000000189
B1500593735061N00104702WA0000000190
B1501053735083N00104718WA0000000189
B1501113735091N00104729WA0000000187
B1501173735087N00104720WA0000000185
B1501233735081N00104717WA0000000186
B1501293735076N00104712WA0000000188
B1501353735070N00104705WA0000000185
B1501413735077N00104717WA0000000184
B1501473735084N00104733WA0000000183
B1501533735078N00104714WA0000000185
B1501593735074N00104711WA0000000187
B1502053735072N00104714WA0000000189
B1502113735069N00104713WA0000000192
B1502173735067N00104707WA0000000198
B1502233735066N00104703WA0000000196
B1502293735067N00104711WA0000000190
B1502353735065N00104714WA0000000181
B1502413735057N00104696WA0000000178
B1502473735053N00104689WA0000000178
B1502533735064N00104710WA0000000180
B1502593735059N00104718WA0000000188
B1503053735055N00104722WA0000000190
B1503113735049N00104719WA0000000185
B1503173735042N00104712WA0000000186
B1503233735034N00104702WA0000000186
B1503293735036N00104716WA0000000189
B1503353735038N00104726WA0000000190
B1503413735031N00104731WA0000000189
B1503473735021N00104720WA0000000184
B1503533735013N00104704WA0000000182
B1503593735008N00104682WA0000000183
B1504053734999N00104666WA0000000189
B1504113734993N00104661WA0000000194
B1504173734987N00104660WA0000000190
B1504233734978N00104644WA0000000189
B1504293734969N00104628WA0000000185
B1504353734961N00104599WA0000000182
B1504413734955N00104564WA0000000177
B1504473734949N00104523WA0000000169
B1504533734943N00104483WA0000000163
B1504593734938N00104443WA0000000158
B1505053734931N00104406WA0000000154
B1505113734924N00104371WA0000000151
B1505173734916N00104338WA0000000151
B1505233734909N00104304WA0000000149
B1505293734901N00104269WA0000000144
B1505353734892N00104234WA0000000140
B1505413734886N00104200WA0000000138
B1505473734881N00104166WA0000000136
B1505533734877N00104133WA0000000134
B1505593734872N00104102WA0000000131
B1506053734870N00104069WA0000000128
B1506113734867N00104043WA0000000128
B1506173734865N00104017WA0000000130
B1506233734864N00103993WA0000000128
B1506293734866N00103969WA0000000128
B1506353734864N00103950WA0000000128
B1506413734863N00103935WA0000000132
B1506473734863N00103915WA0000000138
B1506533734879N00103887WA0000000143
B1506593734891N00103858WA0000000146
B1507053734901N00103828WA0000000151
B1507113734910N00103795WA0000000156
B1507173734914N00103763WA0000000159
B1507233734904N00103753WA0000000160
B1507293734906N00103779WA0000000166
B1507353734913N00103809WA0000000167
B1507413734918N00103838WA0000000169
B1507473734913N00103858WA0000000171
B1507533734909N00103840WA0000000171
B1507593734923N00103809WA0000000177
B1508053734931N00103778WA0000000182
B1508113734946N00103748WA0000000187
B1508173734960N00103720WA0000000192
B1508233734975N00103692WA0000000196
B1508293734964N00103678WA0000000195
B1508353734961N00103704WA0000000198
B1508413734959N00103729WA0000000202
B1508473734957N00103752WA0000000207
B1508533734951N00103774WA0000000213
B1508593734944N00103757WA0000000219
B1509053734967N00103728WA0000000222
B1509113734990N00103699WA0000000224
B1509173735003N00103670WA0000000229
B1509233735018N00103641WA0000000231
B1509293735036N00103612WA0000000236
B1509353735055N00103585WA0000000232
B1509413735042N00103575WA0000000231
B1509473735030N00103590WA0000000229
B1509533735021N00103609WA0000000232
B1509593735012N00103626WA0000000239
B1510053735013N00103654WA0000000243
B1510113735015N00103683WA0000000250
B1510173735005N00103698WA0000000253
B1510233734993N00103707WA0000000254
B1510293734990N00103684WA0000000257
B1510353735019N00103662WA0000000261
B1510413735047N00103641WA0000000268
B1510473735070N00103620WA0000000279
B1510533735085N00103597WA0000000283
B1510593735092N00103573WA0000000285
B1511053735080N00103581WA0000000286
B1511113735066N00103595WA0000000289
B1511173735052N00103606WA0000000298
B1511233735042N00103621WA0000000304
B1511293735042N00103647WA0000000305
B1511353735039N00103670WA0000000306
B1511413735031N00103654WA0000000304
B1511473735057N00103632WA0000000305
B1511533735085N00103611WA0000000309
B1511593735103N00103583WA0000000315
B1512053735122N00103558WA0000000324
B1512113735120N00103537WA0000000326
B1512173735112N00103561WA0000000332
B1512233735100N00103580WA0000000339
B1512293735098N00103602WA0000000344
B1512353735092N00103625WA0000000344
B1512413735080N00103617WA0000000341
B1512473735096N00103586WA0000000342
B1512533735127N00103561WA0000000345
B1512593735143N00103529WA0000000348
B1513053735134N00103524WA0000000346
B1513113735134N00103548WA0000000349
B1513173735133N00103572WA0000000352
B1513233735127N00103589WA0000000354
B1513293735119N00103603WA0000000355
B1513353735113N00103618WA0000000354
B1513413735099N00103618WA0000000363
B1513473735091N00103596WA0000000367
B1513533735085N00103573WA0000000369
B1513593735076N00103580WA0000000369
B1514053735073N00103597WA0000000372
B1514113735066N00103613WA0000000374
B1514173735059N00103629WA0000000377
B1514233735051N00103639WA0000000378
B1514293735039N00103637WA0000000377
B1514353735033N00103614WA0000000377
B1514413735042N00103577WA0000000377
B1514473735070N00103551WA0000000376
B1514533735105N00103544WA0000000375
B1514593735140N00103529WA0000000376
B1515053735156N00103496WA0000000375
B1515113735148N00103497WA0000000374
B1515173735143N00103511WA0000000375
B1515233735150N00103533WA0000000376
B1515293735144N00103543WA0000000380
B1515353735135N00103554WA0000000382
B1515413735126N00103562WA0000000385
B1515473735121N00103575WA0000000388
B1515533735113N00103587WA0000000390
B1515593735106N00103599WA0000000393
B1516053735096N00103606WA0000000392
B1516113735085N00103604WA0000000392
B1516173735077N00103580WA0000000391
B1516233735086N00103543WA0000000390
B1516293735107N00103510WA0000000387
B1516353735140N00103489WA0000000383
B1516413735174N00103470WA0000000384
B1516473735184N00103436WA0000000383
B1516533735174N00103440WA0000000379
B1516593735171N00103461WA0000000376
B1517053735172N00103485WA0000000373
B1517113735170N00103504WA0000000375
B1517173735168N00103521WA0000000376
B1517233735165N00103534WA0000000376
B1517293735157N00103544WA0000000379
B1517353735149N00103555WA0000000382
B1517413735139N00103565WA0000000389
B1517473735131N00103568WA0000000390
B1517533735123N00103580WA0000000388
B1517593735114N00103594WA0000000389
B1518053735104N00103603WA0000000388
B1518113735096N00103613WA0000000388
B1518173735086N00103620WA0000000387
B1518233735078N00103631WA0000000387
B1518293735070N00103639WA0000000387
B1518353735062N00103646WA0000000387
B1518413735053N00103652WA0000000388
B1518473735043N00103655WA0000000390
B1518533735034N00103655WA0000000392
B1518593735023N00103656WA0000000392
B1519053735011N00103641WA0000000393
B1519113735013N00103603WA0000000393
B1519173735044N00103574WA0000000392
B1519233735080N00103570WA0000000390
B1519293735117N00103560WA0000000391
B1519353735153N00103545WA0000000393
B1519413735176N00103510WA0000000392
B1519473735175N00103481WA0000000388
B1519533735166N00103485WA0000000384
B1519593735167N00103504WA0000000384
B1520053735167N00103522WA0000000390
B1520113735162N00103536WA0000000388
B1520173735154N00103544WA0000000391
B1520233735144N00103548WA0000000393
B1520293735136N00103551WA0000000394
B1520353735131N00103561WA0000000396
B1520413735125N00103569WA0000000399
B1520473735116N00103573WA0000000400
B1520533735111N00103579WA0000000401
B1520593735104N00103586WA0000000402
B1521053735098N00103594WA0000000405
B1521113735093N00103593WA0000000408
B1521173735085N00103590WA0000000407
B1521233735080N00103593WA0000000407
B1521293735084N00103607WA0000000407
B1521353735083N00103620WA0000000406
B1521413735075N00103627WA0000000408
B1521473735067N00103627WA0000000411
B1521533735060N00103630WA0000000412
B1521593735052N00103631WA0000000413
B1522053735040N00103627WA0000000416
B1522113735029N00103621WA0000000416
B1522173735018N00103603WA0000000413
B1522233735017N00103564WA0000000413
B1522293735037N00103520WA0000000413
B1522353735074N00103496WA0000000411
B1522413735105N00103501WA0000000412
B1522473735124N00103516WA0000000414
B1522533735143N00103534WA0000000415
B1522593735153N00103552WA0000000415
B1523053735156N00103567WA0000000416
B1523113735154N00103577WA0000000417
B1523173735148N00103578WA0000000418
B1523233735141N00103572WA0000000419
B1523293735132N00103561WA0000000422
B1523353735127N00103564WA0000000423
B1523413735130N00103576WA0000000426
B1523473735127N00103580WA0000000427
B1523533735121N00103578WA0000000431
B1523593735115N00103576WA0000000433
B1524053735114N00103583WA0000000435
B1524113735111N00103585WA0000000438
B1524173735106N00103583WA0000000441
B1524233735100N00103579WA0000000443
B1524293735093N00103575WA0000000445
B1524353735091N00103580WA0000000448
B1524413735090N00103587WA0000000448
B1524473735085N00103591WA0000000449
B1524533735077N00103580WA0000000449
B1524593735074N00103545WA0000000448
B1525053735093N00103502WA0000000447
B1525113735132N00103486WA0000000447
B1525173735164N00103492WA0000000448
B1525233735205N00103470WA0000000447
B1525293735239N00103434WA0000000445
B1525353735272N00103396WA0000000440
B1525413735303N00103360WA0000000436
B1525473735334N00103325WA0000000436
B1525533735347N00103291WA0000000438
B1525593735346N00103302WA0000000440
B1526053735344N00103315WA0000000441
B1526113735343N00103324WA0000000441
B1526173735338N00103329WA0000000441
B1526233735332N00103334WA0000000438
B1526293735325N00103340WA0000000443
B1526353735318N00103337WA0000000448
B1526413735308N00103335WA0000000449
B1526473735301N00103338WA0000000446
B1526533735294N00103347WA0000000444
B1526593735286N00103353WA0000000443
B1527053735279N00103361WA0000000440
B1527113735273N00103371WA0000000438
B1527173735264N00103383WA0000000434
B1527233735256N00103394WA0000000434
B1527293735251N00103405WA0000000432
B1527353735247N00103417WA0000000430
B1527413735244N00103424WA0000000426
B1527473735237N00103429WA0000000419
B1527533735228N00103437WA0000000413
B1527593735218N00103452WA0000000413
B1528053735211N00103460WA0000000416
B1528113735202N00103462WA0000000416
B1528173735197N00103473WA0000000412
B1528233735191N00103485WA0000000413
B1528293735181N00103482WA0000000416
B1528353735174N00103487WA0000000417
B1528413735174N00103499WA0000000418
B1528473735173N00103502WA0000000420
B1528533735172N00103513WA0000000419
B1528593735172N00103521WA0000000424
B1529053735173N00103529WA0000000428
B1529113735172N00103532WA0000000432
B1529173735170N00103538WA0000000436
B1529233735166N00103541WA0000000436
B1529293735162N00103543WA0000000442
B1529353735159N00103544WA0000000442
B1529413735158N00103549WA0000000443
B1529473735157N00103554WA0000000444
B1529533735153N00103559WA0000000448
B1529593735149N00103563WA0000000451
B1530053735144N00103564WA0000000454
B1530113735139N00103562WA0000000455
B1530173735137N00103566WA0000000452
B1530233735134N00103573WA0000000452
B1530293735130N00103569WA0000000453
B1530353735126N00103571WA0000000453
B1530413735123N00103579WA0000000452
B1530473735118N00103585WA0000000453
B1530533735113N00103582WA0000000454
B1530593735109N00103587WA0000000454
B1531053735107N00103593WA0000000455
B1531113735105N00103598WA0000000455
B1531173735100N00103596WA0000000455
B1531233735095N00103594WA0000000455
B1531293735092N00103599WA0000000456
B1531353735091N00103602WA0000000456
B1531413735091N00103610WA0000000455
B1531473735088N00103613WA0000000454
B1531533735085N00103619WA0000000455
B1531593735086N00103626WA0000000457
B1532053735081N00103618WA0000000457
B1532113735075N00103613WA0000000459
B1532173735071N00103612WA0000000460
B1532233735068N00103614WA0000000457
B1532293735064N00103618WA0000000456
B1532353735061N00103620WA0000000455
B1532413735056N00103621WA0000000457
B1532473735053N00103624WA0000000456
B1532533735050N00103630WA0000000456
B1532593735045N00103627WA0000000455
B1533053735043N00103633WA0000000454
B1533113735041N00103640WA0000000453
B1533173735039N00103649WA0000000453
B1533233735040N00103659WA0000000453
B1533293735040N00103668WA0000000453
B1533353735039N00103673WA0000000452
B1533413735037N00103678WA0000000452
B1533473735037N00103687WA0000000451
B1533533735038N00103696WA0000000453
B1533593735035N00103701WA0000000454
B1534053735030N00103685WA0000000454
B1534113735035N00103646WA0000000454
B1534173735069N00103609WA0000000455
B1534233735110N00103597WA0000000457
B1534293735150N00103598WA0000000458
B1534353735191N00103598WA0000000458
B1534413735210N00103614WA0000000456
B1534473735207N00103617WA0000000454
B1534533735202N00103612WA0000000451
B1534593735196N00103609WA0000000453
B1535053735192N00103609WA0000000455
B1535113735188N00103611WA0000000457
B1535173735183N00103611WA0000000456
B1535233735176N00103609WA0000000455
B1535293735171N00103611WA0000000453
B1535353735165N00103614WA0000000450
B1535413735161N00103618WA0000000448
B1535473735154N00103617WA0000000449
B1535533735150N00103619WA0000000448
B1535593735143N00103621WA0000000450
B1536053735137N00103623WA0000000449
B1536113735128N00103625WA0000000450
B1536173735120N00103628WA0000000450
B1536233735115N00103634WA0000000453
B1536293735112N00103636WA0000000456
B1536353735107N00103641WA0000000455
B1536413735101N00103643WA0000000454
B1536473735097N00103647WA0000000450
B1536533735091N00103654WA0000000448
B1536593735084N00103660WA0000000450
B1537053735077N00103668WA0000000451
B1537113735069N00103671WA0000000452
B1537173735061N00103677WA0000000451
B1537233735063N00103692WA0000000448
B1537293735064N00103708WA0000000448
B1537353735079N00103730WA0000000446
B1537413735085N00103748WA0000000446
B1537473735079N00103744WA0000000444
B1537533735070N00103737WA0000000440
B1537593735061N00103734WA0000000438
B1538053735053N00103736WA0000000438
B1538113735046N00103732WA0000000437
B1538173735041N00103732WA0000000437
B1538233735035N00103732WA0000000436
B1538293735031N00103733WA0000000435
B1538353735028N00103736WA0000000434
B1538413735023N00103737WA0000000432
B1538473735018N00103740WA0000000429
B1538533735009N00103738WA0000000429
B1538593735001N00103740WA0000000427
B1539053734995N00103752WA0000000430
B1539113734989N00103762WA0000000431
B1539173734984N00103766WA0000000432
B1539233734980N00103775WA0000000430
B1539293734977N00103785WA0000000431
B1539353734974N00103788WA0000000428
B1539413734975N00103797WA0000000426
B1539473734978N00103807WA0000000423
B1539533734975N00103810WA0000000419
B1539593734969N00103810WA0000000414
B1540053734963N00103813WA0000000412
B1540113734958N00103818WA0000000406
B1540173734953N00103825WA0000000404
B1540233734949N00103830WA0000000405
B1540293734945N00103837WA0000000405
B1540353734940N00103835WA0000000402
B1540413734934N00103836WA0000000401
B1540473734929N00103838WA0000000400
B1540533734923N00103825WA0000000397
B1540593734933N00103782WA0000000395
B1541053734969N00103745WA0000000394
B1541113735010N00103720WA0000000394
B1541173735048N00103690WA0000000395
B1541233735079N00103655WA0000000395
B1541293735105N00103620WA0000000396
B1541353735126N00103583WA0000000399
B1541413735118N00103560WA0000000400
B1541473735113N00103572WA0000000402
B1541533735105N00103583WA0000000401
B1541593735099N00103593WA0000000403
B1542053735100N00103608WA0000000403
B1542113735095N00103617WA0000000402
B1542173735089N00103626WA0000000401
B1542233735081N00103630WA0000000402
B1542293735073N00103631WA0000000402
B1542353735068N00103638WA0000000401
B1542413735062N00103647WA0000000401
B1542473735056N00103655WA0000000400
B1542533735051N00103667WA0000000400
B1542593735045N00103676WA0000000399
B1543053735036N00103657WA0000000395
B1543113735055N00103619WA0000000393
B1543173735091N00103589WA0000000392
B1543233735124N00103559WA0000000395
B1543293735138N00103520WA0000000395
B1543353735129N00103510WA0000000396
B1543413735137N00103531WA0000000399
B1543473735130N00103546WA0000000400
B1543533735121N00103553WA0000000400
B1543593735112N00103564WA0000000401
B1544053735106N00103575WA0000000402
B1544113735099N00103588WA0000000401
B1544173735095N00103604WA0000000398
B1544233735087N00103616WA0000000396
B1544293735081N00103626WA0000000395
B1544353735076N00103637WA0000000392
B1544413735073N00103651WA0000000388
B1544473735064N00103663WA0000000389
B1544533735055N00103671WA0000000388
B1544593735052N00103686WA0000000387
B1545053735043N00103683WA0000000387
B1545113735046N00103646WA0000000386
B1545173735070N00103612WA0000000388
B1545233735105N00103594WA0000000388
B1545293735140N00103578WA0000000389
B1545353735169N00103551WA0000000392
B1545413735178N00103516WA0000000391
B1545473735169N00103520WA0000000391
B1545533735173N00103541WA0000000394
B1545593735176N00103559WA0000000393
B1546053735168N00103567WA0000000397
B1546113735158N00103574WA0000000399
B1546173735148N00103583WA0000000397
B1546233735139N00103596WA0000000399
B1546293735133N00103606WA0000000401
B1546353735127N00103619WA0000000402
B1546413735135N00103643WA0000000404
B1546473735150N00103668WA0000000403
B1546533735143N00103672WA0000000400
B1546593735135N00103657WA0000000401
B1547053735124N00103646WA0000000399
B1547113735114N00103644WA0000000396
B1547173735107N00103657WA0000000396
B1547233735099N00103665WA0000000399
B1547293735092N00103674WA0000000400
B1547353735091N00103691WA0000000403
B1547413735087N00103701WA0000000403
B1547473735082N00103708WA0000000407
B1547533735080N00103720WA0000000407
B1547593735077N00103732WA0000000408
B1548053735071N00103727WA0000000407
B1548113735063N00103723WA0000000404
B1548173735056N00103712WA0000000403
B1548233735062N00103673WA0000000402
B1548293735083N00103632WA0000000399
B1548353735099N00103590WA0000000398
B1548413735110N00103547WA0000000399
B1548473735114N00103504WA0000000396
B1548533735119N00103461WA0000000395
B1548593735139N00103421WA0000000395
B1549053735175N00103400WA0000000392
B1549113735211N00103382WA0000000388
B1549173735249N00103364WA0000000388
B1549233735288N00103349WA0000000388
B1549293735314N00103323WA0000000392
B1549353735310N00103309WA0000000396
B1549413735319N00103334WA0000000399
B1549473735329N00103362WA0000000401
B1549533735323N00103376WA0000000404
B1549593735317N00103363WA0000000400
B1550053735330N00103333WA0000000401
B1550113735327N00103318WA0000000404
B1550173735329N00103341WA0000000407
B1550233735326N00103361WA0000000411
B1550293735317N00103371WA0000000414
B1550353735310N00103372WA0000000416
B1550413735301N00103377WA0000000416
B1550473735294N00103381WA0000000415
B1550533735286N00103379WA0000000412
B1550593735291N00103350WA0000000408
B1551053735322N00103325WA0000000408
B1551113735343N00103295WA0000000414
B1551173735336N00103290WA0000000415
B1551233735338N00103312WA0000000423
B1551293735333N00103324WA0000000425
B1551353735334N00103343WA0000000425
B1551413735329N00103346WA0000000427
B1551473735328N00103322WA0000000428
B1551533735327N00103297WA0000000431
B1551593735322N00103299WA0000000433
B1552053735319N00103309WA0000000431
B1552113735311N00103320WA0000000432
B1552173735306N00103328WA0000000432
B1552233735300N00103336WA0000000431
B1552293735295N00103342WA0000000431
B1552353735290N00103342WA0000000429
B1552413735283N00103347WA0000000426
B1552473735276N00103351WA0000000421
B1552533735269N00103356WA0000000418
B1552593735259N00103370WA0000000419
B1553053735248N00103378WA0000000414
B1553113735238N00103393WA0000000410
B1553173735227N00103408WA0000000402
B1553233735216N00103426WA0000000398
B1553293735205N00103443WA0000000391
B1553353735195N00103459WA0000000385
B1553413735186N00103476WA0000000379
B1553473735175N00103491WA0000000375
B1553533735161N00103503WA0000000374
B1553593735153N00103520WA0000000373
B1554053735160N00103545WA0000000373
B1554113735164N00103565WA0000000376
B1554173735157N00103578WA0000000378
B1554233735152N00103595WA0000000381
B1554293735143N00103609WA0000000382
B1554353735133N00103619WA0000000382
B1554413735123N00103632WA0000000382
B1554473735110N00103639WA0000000383
B1554533735099N00103651WA0000000382
B1554593735089N00103655WA0000000380
B1555053735078N00103662WA0000000379
B1555113735072N00103672WA0000000382
B1555173735062N00103680WA0000000386
B1555233735053N00103685WA0000000387
B1555293735044N00103692WA0000000388
B1555353735039N00103702WA0000000386
B1555413735045N00103722WA0000000383
B1555473735073N00103739WA0000000379
B1555533735114N00103738WA0000000375
B1555593735156N00103720WA0000000369
B1556053735197N00103705WA0000000359
B1556113735240N00103707WA0000000353
B1556173735246N00103730WA0000000353
B1556233735239N00103736WA0000000349
B1556293735231N00103732WA0000000346
B1556353735219N00103731WA0000000345
B1556413735205N00103732WA0000000338
B1556473735190N00103737WA0000000329
B1556533735172N00103739WA0000000320
B1556593735155N00103740WA0000000309
B1557053735142N00103745WA0000000303
B1557113735131N00103751WA0000000292
B1557173735121N00103757WA0000000279
B1557233735108N00103770WA0000000272
B1557293735102N00103784WA0000000257
B1557353735097N00103802WA0000000242
B1557413735093N00103823WA0000000230
B1557473735086N00103840WA0000000219
B1557533735077N00103849WA0000000213
B1557593735065N00103849WA0000000203
B1558053735055N00103863WA0000000197
B1558113735051N00103884WA0000000187
B1558173735047N00103906WA0000000179
B1558233735042N00103927WA0000000169
B1558293735037N00103949WA0000000162
B1558353735029N00103966WA0000000154
B1558413735020N00103983WA0000000147
B1558473735019N00104008WA0000000138
B1558533735019N00104033WA0000000128
B1558593735020N00104060WA0000000121
B1559053735021N00104086WA0000000114
B1559113735022N00104110WA0000000106
B1559173735025N00104136WA0000000099
B1559233735029N00104161WA0000000093
B1559293735030N00104185WA0000000090
B1559353735034N00104210WA0000000086
B1559413735035N00104230WA0000000085
B1559473735031N00104248WA0000000082
B1559533735036N00104270WA0000000083
B1559593735036N00104290WA0000000084
B1600053735046N00104318WA0000000086
B1600113735039N00104317WA0000000086
B1600173735034N00104295WA0000000086
B1600233735026N00104298WA0000000085
B1600293735037N00104323WA0000000082
B1600353735032N00104333WA0000000078
B1600413735039N00104300WA0000000080
B1600473735032N00104291WA0000000079
B1600533735035N00104316WA0000000082
B1600593735032N00104333WA0000000085
B1601053735037N00104346WA0000000083
B1601113735042N00104312WA0000000085
B1601173735039N00104288WA0000000089
B1601233735031N00104289WA0000000090
B1601293735026N00104300WA0000000089
B1601353735020N00104279WA0000000089
B1601413735013N00104284WA0000000086
B1601473735004N00104273WA0000000083
B1601533734999N00104253WA0000000081
B1601593734997N00104265WA0000000075
B1602053735018N00104290WA0000000073
B1602113735031N00104315WA0000000073
B1602173735022N00104314WA0000000074
B1602233735014N00104297WA0000000075
B1602293735006N00104293WA0000000072
B1602353734997N00104288WA0000000068
B1602413734992N00104271WA0000000065
B1602473735004N00104293WA0000000061
B1602533735003N00104310WA0000000057
B1602593734994N00104313WA0000000054
B1603053734991N00104290WA0000000048
B1603113734999N00104308WA0000000042
B1603173735031N00104324WA0000000040
B1603233735045N00104351WA0000000040
B1603293735038N00104346WA0000000040
B1603353735031N00104340WA0000000040
B1603413735025N00104332WA0000000037
B1603473735022N00104321WA0000000038
B1603533735036N00104348WA0000000036
B1603593735055N00104380WA0000000033
B1604053735067N00104410WA0000000028
B1604113735064N00104411WA0000000022
B1604173735064N00104397WA0000000017
LXCG     VERSION:5.7
GAA23DE95F4161DC124B6E7B023E6C276CB0CD4CA7CBD190443D70F8889641B51646B9
GA247488A92B3080C67DBA5AC1AA87D4F36998433FD56DA9435B0CC9AC43745C532F
G7A23A35F38C48B19748A13859C2402E3C315A55F4968E0A88DB1283B16188413077
G0CE9E2C5E068A03D57F0FA0194AA924A39A8C8C29C0C9EE0907BAF98EC571